createdAt,value
2022-10-12T00:00:25.947Z,21.97
2022-10-12T00:02:52.535Z,16.70
2022-10-12T00:05:19.185Z,15.00
2022-10-12T00:07:45.922Z,12.47
2022-10-12T00:10:12.686Z,13.33
2022-10-12T00:12:39.286Z,13.80
2022-10-12T00:15:06.195Z,17.57
2022-10-12T00:17:32.957Z,12.47
2022-10-12T00:19:59.550Z,15.47
2022-10-12T00:22:26.137Z,13.20
2022-10-12T00:24:53.014Z,13.43
2022-10-12T00:27:19.652Z,13.20
2022-10-12T00:29:46.284Z,14.90
2022-10-12T00:32:12.854Z,12.03
2022-10-12T00:34:39.449Z,11.57
2022-10-12T00:37:06.052Z,14.53
2022-10-12T00:39:32.628Z,13.33
2022-10-12T00:41:59.386Z,11.60
2022-10-12T00:44:39.796Z,13.30
2022-10-12T00:47:10.904Z,12.93
2022-10-12T00:49:37.648Z,14.57
2022-10-12T00:52:09.206Z,15.90
2022-10-12T00:54:38.169Z,15.33
2022-10-12T00:57:05.845Z,12.07
2022-10-12T00:59:34.322Z,11.00
2022-10-12T01:02:00.946Z,16.30
2022-10-12T01:04:27.596Z,15.73
2022-10-12T01:06:54.171Z,14.97
2022-10-12T01:09:21.142Z,17.13
2022-10-12T01:11:48.049Z,14.40
2022-10-12T01:14:15.210Z,16.47
2022-10-12T01:16:46.811Z,17.77
2022-10-12T01:19:36.857Z,15.50
2022-10-12T01:22:05.793Z,16.23
2022-10-12T01:24:38.370Z,13.37
2022-10-12T01:27:15.013Z,10.20
2022-10-12T01:30:00.375Z,15.37
2022-10-12T01:32:26.898Z,16.23
2022-10-12T01:34:53.525Z,21.50
2022-10-12T01:37:42.502Z,13.53
2022-10-12T01:40:12.091Z,15.60
2022-10-12T01:42:40.289Z,13.60
2022-10-12T01:45:08.808Z,21.50
2022-10-12T01:47:36.431Z,13.90
2022-10-12T01:50:04.380Z,15.97
2022-10-12T01:52:32.163Z,15.27
2022-10-12T01:55:17.791Z,12.87
2022-10-12T01:57:50.313Z,11.93
2022-10-12T02:00:17.383Z,12.20
2022-10-12T02:03:22.676Z,13.90
2022-10-12T02:05:58.147Z,12.90
2022-10-12T02:08:26.453Z,12.70
2022-10-12T02:11:02.366Z,10.27
2022-10-12T02:13:30.735Z,12.70
2022-10-12T02:15:58.472Z,12.83
2022-10-12T02:18:25.248Z,12.20
2022-10-12T02:20:53.648Z,16.20
2022-10-12T02:23:23.379Z,15.33
2022-10-12T02:25:51.687Z,19.27
2022-10-12T02:28:20.792Z,14.20
2022-10-12T02:31:01.568Z,14.13
2022-10-12T02:33:37.215Z,16.80
2022-10-12T02:36:10.991Z,15.77
2022-10-12T02:38:49.009Z,15.90
2022-10-12T02:41:19.932Z,15.50
2022-10-12T02:43:52.433Z,13.47
2022-10-12T02:46:19.714Z,18.17
2022-10-12T02:48:47.566Z,17.47
2022-10-12T02:51:14.536Z,17.27
2022-10-12T02:53:41.247Z,17.10
2022-10-12T02:56:11.746Z,15.43
2022-10-12T02:58:38.468Z,23.70
2022-10-12T03:01:05.192Z,14.50
2022-10-12T03:03:31.836Z,18.20
2022-10-12T03:05:58.620Z,16.90
2022-10-12T03:08:25.212Z,16.20
2022-10-12T03:10:51.772Z,15.53
2022-10-12T03:13:18.429Z,13.33
2022-10-12T03:15:45.067Z,21.33
2022-10-12T03:18:11.665Z,16.63
2022-10-12T03:20:38.240Z,17.43
2022-10-12T03:23:04.813Z,21.03
2022-10-12T03:25:31.802Z,22.87
2022-10-12T03:27:58.483Z,20.20
2022-10-12T03:30:25.059Z,18.63
2022-10-12T03:32:51.691Z,16.77
2022-10-12T03:35:18.280Z,16.93
2022-10-12T03:37:44.931Z,19.77
2022-10-12T03:40:11.768Z,17.87
2022-10-12T03:42:38.398Z,21.67
2022-10-12T03:45:05.154Z,16.80
2022-10-12T03:47:31.758Z,17.93
2022-10-12T03:49:58.346Z,16.57
2022-10-12T03:52:24.941Z,20.63
2022-10-12T03:54:51.527Z,16.80
2022-10-12T03:57:18.148Z,20.30
2022-10-12T03:59:44.697Z,20.90
2022-10-12T04:02:16.518Z,21.80
2022-10-12T04:04:43.610Z,16.90
2022-10-12T04:07:10.384Z,19.17
2022-10-12T04:09:36.975Z,21.37
2022-10-12T04:12:03.679Z,17.87
2022-10-12T04:14:30.496Z,20.70
2022-10-12T04:16:57.052Z,22.83
2022-10-12T04:19:23.596Z,18.50
2022-10-12T04:21:50.253Z,21.47
2022-10-12T04:24:16.824Z,23.43
2022-10-12T04:26:43.416Z,18.67
2022-10-12T04:29:11.665Z,20.97
2022-10-12T04:31:38.209Z,19.23
2022-10-12T04:34:04.844Z,18.90
2022-10-12T04:36:31.466Z,19.00
2022-10-12T04:39:00.982Z,18.27
2022-10-12T04:41:27.980Z,23.07
2022-10-12T04:43:54.703Z,18.43
2022-10-12T04:46:21.423Z,21.30
2022-10-12T04:48:48.044Z,17.13
2022-10-12T04:51:14.661Z,19.67
2022-10-12T04:53:41.326Z,20.40
2022-10-12T04:56:08.027Z,20.50
2022-10-12T04:58:34.673Z,24.03
2022-10-12T05:01:01.332Z,21.20
2022-10-12T05:03:28.007Z,20.13
2022-10-12T05:05:54.563Z,19.10
2022-10-12T05:08:21.274Z,26.13
2022-10-12T05:10:47.898Z,25.17
2022-10-12T05:13:14.699Z,22.50
2022-10-12T05:15:42.635Z,19.53
2022-10-12T05:18:09.235Z,22.13
2022-10-12T05:20:37.418Z,17.47
2022-10-12T05:23:04.378Z,21.47
2022-10-12T05:25:31.156Z,20.17
2022-10-12T05:27:57.812Z,15.00
2022-10-12T05:30:24.448Z,15.17
2022-10-12T05:32:51.651Z,25.33
2022-10-12T05:35:18.285Z,17.47
2022-10-12T05:37:44.855Z,14.97
2022-10-12T05:40:11.709Z,13.43
2022-10-12T05:42:38.636Z,20.57
2022-10-12T05:45:05.746Z,13.10
2022-10-12T05:47:32.329Z,15.70
2022-10-12T05:49:58.941Z,19.90
2022-10-12T05:52:25.517Z,17.10
2022-10-12T05:54:52.096Z,12.10
2022-10-12T05:57:19.587Z,15.77
2022-10-12T05:59:46.213Z,15.27
2022-10-12T06:02:17.018Z,11.87
2022-10-12T06:04:43.715Z,16.73
2022-10-12T06:07:10.320Z,11.97
2022-10-12T06:09:40.112Z,15.20
2022-10-12T06:12:07.522Z,12.07
2022-10-12T06:14:34.135Z,13.73
2022-10-12T06:17:00.728Z,13.47
2022-10-12T06:19:27.313Z,12.43
2022-10-12T06:21:53.900Z,12.67
2022-10-12T06:24:20.539Z,14.57
2022-10-12T06:26:47.192Z,13.27
2022-10-12T06:29:13.795Z,13.83
2022-10-12T06:31:40.450Z,15.33
2022-10-12T06:34:07.039Z,10.67
2022-10-12T06:36:33.681Z,12.07
2022-10-12T06:39:00.351Z,11.13
2022-10-12T06:41:26.920Z,15.57
2022-10-12T06:43:53.478Z,20.03
2022-10-12T06:46:20.105Z,17.30
2022-10-12T06:48:46.697Z,14.43
2022-10-12T06:51:13.321Z,13.23
2022-10-12T06:53:39.944Z,17.07
2022-10-12T06:56:10.009Z,21.20
2022-10-12T06:58:36.734Z,20.87
2022-10-12T07:01:07.456Z,17.93
2022-10-12T07:03:34.447Z,16.67
2022-10-12T07:06:07.540Z,11.73
2022-10-12T07:08:34.659Z,11.90
2022-10-12T07:11:01.957Z,12.20
2022-10-12T07:13:28.856Z,11.20
2022-10-12T07:15:55.529Z,8.53
2022-10-12T07:18:22.138Z,7.87
2022-10-12T07:20:48.757Z,9.63
2022-10-12T07:23:15.418Z,15.53
2022-10-12T07:25:47.386Z,12.97
2022-10-12T07:28:14.078Z,9.47
2022-10-12T07:30:40.716Z,6.43
2022-10-12T07:33:07.340Z,11.17
2022-10-12T07:35:33.901Z,8.13
2022-10-12T07:38:00.557Z,11.20
2022-10-12T07:40:27.147Z,6.87
2022-10-12T07:43:14.826Z,4.93
2022-10-12T07:45:41.307Z,5.83
2022-10-12T07:48:08.064Z,6.93
2022-10-12T07:50:34.639Z,8.60
2022-10-12T07:53:01.180Z,7.40
2022-10-12T07:55:27.783Z,6.90
2022-10-12T07:57:54.379Z,8.23
2022-10-12T08:00:22.278Z,6.00
2022-10-12T08:02:48.863Z,12.00
2022-10-12T08:05:15.469Z,13.13
2022-10-12T08:07:42.234Z,8.87
2022-10-12T08:10:08.897Z,7.10
2022-10-12T08:12:35.467Z,6.87
2022-10-12T08:15:02.097Z,5.03
2022-10-12T08:17:28.656Z,5.37
2022-10-12T08:19:55.350Z,11.63
2022-10-12T08:22:21.933Z,7.80
2022-10-12T08:24:48.631Z,6.30
2022-10-12T08:27:15.344Z,10.43
2022-10-12T08:29:41.965Z,8.47
2022-10-12T08:32:08.608Z,6.93
2022-10-12T08:34:35.289Z,6.67
2022-10-12T08:37:01.903Z,5.03
2022-10-12T08:39:28.596Z,3.43
2022-10-12T08:42:14.021Z,5.93
2022-10-12T08:44:51.222Z,10.37
2022-10-12T08:47:20.552Z,5.57
2022-10-12T08:49:52.872Z,6.03
2022-10-12T08:52:40.843Z,5.40
2022-10-12T08:55:20.184Z,8.20
2022-10-12T08:57:50.043Z,8.53
2022-10-12T09:00:18.896Z,6.70
2022-10-12T09:02:56.199Z,6.23
2022-10-12T09:05:30.942Z,7.73
2022-10-12T09:08:22.915Z,8.00
2022-10-12T09:10:58.569Z,6.03
2022-10-12T09:13:39.090Z,7.83
2022-10-12T09:16:14.784Z,5.63
2022-10-12T09:18:47.683Z,7.40
2022-10-12T09:21:19.872Z,12.13
2022-10-12T09:23:50.053Z,6.30
2022-10-12T09:26:21.722Z,5.43
2022-10-12T09:28:51.030Z,6.60
2022-10-12T09:31:25.795Z,6.07
2022-10-12T09:33:54.799Z,3.83
2022-10-12T09:36:22.336Z,5.80
2022-10-12T09:38:49.668Z,5.50
2022-10-12T09:41:23.853Z,4.37
2022-10-12T09:43:52.524Z,5.87
2022-10-12T09:46:22.223Z,5.00
2022-10-12T09:49:01.180Z,4.23
2022-10-12T09:51:29.312Z,9.87
2022-10-12T09:54:02.583Z,7.23
2022-10-12T09:56:30.870Z,5.83
2022-10-12T09:59:00.609Z,5.93
2022-10-12T10:01:27.284Z,6.63
2022-10-12T10:04:06.764Z,11.63
2022-10-12T10:06:33.793Z,8.63
2022-10-12T10:09:00.827Z,6.47
2022-10-12T10:11:28.562Z,7.67
2022-10-12T10:13:55.233Z,4.93
2022-10-12T10:16:26.130Z,4.83
2022-10-12T10:18:55.746Z,5.77
2022-10-12T10:21:36.391Z,5.50
2022-10-12T10:24:07.185Z,6.27
2022-10-12T10:26:54.159Z,7.57
2022-10-12T10:29:39.218Z,3.57
2022-10-12T10:32:31.699Z,6.00
2022-10-12T10:35:02.597Z,7.17
2022-10-12T10:37:29.758Z,5.30
2022-10-12T10:39:57.329Z,4.43
2022-10-12T10:42:29.326Z,4.33
2022-10-12T10:45:00.928Z,5.83
2022-10-12T10:47:28.313Z,4.27
2022-10-12T10:49:57.284Z,6.63
2022-10-12T10:52:25.646Z,4.60
2022-10-12T10:55:10.797Z,8.57
2022-10-12T10:57:40.311Z,6.10
2022-10-12T11:00:37.279Z,7.43
2022-10-12T11:03:01.192Z,8.83
2022-10-12T11:05:27.761Z,9.70
2022-10-12T11:07:56.038Z,6.90
2022-10-12T11:10:45.927Z,5.90
2022-10-12T11:13:15.804Z,9.87
2022-10-12T11:15:45.865Z,7.50
2022-10-12T11:18:20.510Z,7.70
2022-10-12T11:21:07.389Z,6.40
2022-10-12T11:23:41.616Z,6.73
2022-10-12T11:26:08.408Z,7.90
2022-10-12T11:28:36.158Z,8.60
2022-10-12T11:31:03.259Z,9.33
2022-10-12T11:33:37.990Z,9.13
2022-10-12T11:36:12.566Z,9.47
2022-10-12T11:38:41.940Z,9.00
2022-10-12T11:41:34.510Z,5.90
2022-10-12T11:44:07.406Z,7.67
2022-10-12T11:47:02.099Z,6.87
2022-10-12T11:49:34.540Z,7.53
2022-10-12T11:52:06.233Z,8.07
2022-10-12T11:54:38.030Z,8.57
2022-10-12T11:57:12.120Z,5.87
2022-10-12T11:59:41.858Z,7.27
2022-10-12T12:02:27.339Z,6.17
2022-10-12T12:04:54.645Z,9.77
2022-10-12T12:07:40.929Z,8.40
2022-10-12T12:10:25.647Z,7.30
2022-10-12T12:13:11.820Z,8.37
2022-10-12T12:15:47.735Z,6.93
2022-10-12T12:18:16.419Z,9.97
2022-10-12T12:20:43.157Z,7.33
2022-10-12T12:23:18.770Z,5.40
2022-10-12T12:25:45.493Z,5.07
2022-10-12T12:28:22.894Z,8.63
2022-10-12T12:30:57.330Z,5.73
2022-10-12T12:33:35.986Z,6.27
2022-10-12T12:36:04.411Z,8.53
2022-10-12T12:38:35.016Z,9.53
2022-10-12T12:41:06.754Z,11.17
2022-10-12T12:43:39.068Z,10.30
2022-10-12T12:46:11.880Z,6.27
2022-10-12T12:48:41.656Z,6.43
2022-10-12T12:51:13.727Z,7.63
2022-10-12T12:53:45.127Z,9.37
2022-10-12T12:56:20.334Z,7.37
2022-10-12T12:59:08.451Z,9.13
2022-10-12T13:01:50.662Z,6.67
2022-10-12T13:04:35.596Z,4.67
2022-10-12T13:07:09.158Z,8.27
2022-10-12T13:09:45.660Z,5.77
2022-10-12T13:12:18.528Z,6.23
2022-10-12T13:14:45.096Z,15.70
2022-10-12T13:17:33.012Z,6.23
2022-10-12T13:20:02.096Z,7.63
2022-10-12T13:22:32.117Z,5.07
2022-10-12T13:25:01.642Z,5.83
2022-10-12T13:27:34.481Z,11.93
2022-10-12T13:30:19.994Z,4.40
2022-10-12T13:33:05.037Z,4.03
2022-10-12T13:35:34.159Z,8.83
2022-10-12T13:38:18.900Z,6.57
2022-10-12T13:41:02.629Z,4.30
2022-10-12T13:43:33.291Z,6.50
2022-10-12T13:46:00.460Z,3.17
2022-10-12T13:48:53.850Z,4.73
2022-10-12T13:51:21.330Z,6.63
2022-10-12T13:53:48.249Z,6.33
2022-10-12T13:56:16.482Z,4.70
2022-10-12T13:58:43.115Z,3.97
2022-10-12T14:01:13.545Z,6.10
2022-10-12T14:03:41.833Z,5.23
2022-10-12T14:06:28.807Z,5.77
2022-10-12T14:09:05.424Z,4.87
2022-10-12T14:11:32.188Z,5.43
2022-10-12T14:13:58.820Z,4.40
2022-10-12T14:16:25.451Z,6.93
2022-10-12T14:18:51.997Z,4.67
2022-10-12T14:21:34.588Z,4.07
2022-10-12T14:24:09.884Z,4.13
2022-10-12T14:26:43.367Z,5.30
2022-10-12T14:29:29.036Z,3.80
2022-10-12T14:31:57.672Z,4.87
2022-10-12T14:34:27.018Z,6.17
2022-10-12T14:37:03.966Z,5.90
2022-10-12T14:39:30.825Z,8.17
2022-10-12T14:41:59.732Z,5.00
2022-10-12T14:44:27.272Z,9.63
2022-10-12T14:46:55.107Z,4.63
2022-10-12T14:49:23.571Z,6.53
2022-10-12T14:51:51.712Z,8.00
2022-10-12T14:54:18.312Z,5.93
2022-10-12T14:56:44.963Z,7.20
2022-10-12T14:59:11.663Z,7.80
2022-10-12T15:01:41.969Z,8.03
2022-10-12T15:04:13.595Z,7.40
2022-10-12T15:06:40.310Z,7.70
2022-10-12T15:09:06.864Z,9.93
2022-10-12T15:11:33.427Z,6.70
2022-10-12T15:14:00.039Z,9.83
2022-10-12T15:16:27.712Z,12.77
2022-10-12T15:18:54.356Z,7.77
2022-10-12T15:21:20.975Z,8.67
2022-10-12T15:23:47.528Z,6.73
2022-10-12T15:26:15.370Z,11.57
2022-10-12T15:28:43.197Z,8.37
2022-10-12T15:31:17.535Z,9.13
2022-10-12T15:33:44.795Z,9.73
2022-10-12T15:36:11.536Z,8.03
2022-10-12T15:38:38.200Z,10.13
2022-10-12T15:41:04.847Z,9.00
2022-10-12T15:43:33.019Z,7.40
2022-10-12T15:46:01.466Z,7.37
2022-10-12T15:48:29.012Z,9.37
2022-10-12T15:50:55.561Z,7.80
2022-10-12T15:53:26.383Z,7.13
2022-10-12T15:55:53.923Z,8.33
2022-10-12T15:58:20.746Z,7.60
2022-10-12T16:00:47.717Z,11.67
2022-10-12T16:03:24.502Z,6.10
2022-10-12T16:05:52.011Z,9.13
2022-10-12T16:08:18.757Z,8.97
2022-10-12T16:10:46.175Z,8.63
2022-10-12T16:13:13.521Z,7.47
2022-10-12T16:15:40.626Z,6.53
2022-10-12T16:18:07.316Z,9.87
2022-10-12T16:20:36.810Z,11.27
2022-10-12T16:23:03.910Z,8.67
2022-10-12T16:25:30.502Z,10.17
2022-10-12T16:27:57.445Z,7.97
2022-10-12T16:30:24.843Z,7.37
2022-10-12T16:32:52.814Z,8.70
2022-10-12T16:35:19.470Z,6.50
2022-10-12T16:37:46.259Z,7.10
2022-10-12T16:40:13.211Z,8.90
2022-10-12T16:42:39.831Z,7.77
2022-10-12T16:45:06.977Z,9.23
2022-10-12T16:47:33.603Z,8.83
2022-10-12T16:50:00.200Z,9.37
2022-10-12T16:52:26.884Z,10.97
2022-10-12T16:54:56.568Z,8.43
2022-10-12T16:57:23.476Z,8.27
2022-10-12T16:59:50.450Z,10.60
2022-10-12T17:02:18.116Z,7.17
2022-10-12T17:04:45.125Z,10.40
2022-10-12T17:07:11.745Z,10.47
2022-10-12T17:09:38.565Z,10.47
2022-10-12T17:12:05.238Z,10.13
2022-10-12T17:14:31.966Z,10.37
2022-10-12T17:16:58.586Z,16.27
2022-10-12T17:19:29.452Z,12.57
2022-10-12T17:21:59.430Z,9.43
2022-10-12T17:24:27.589Z,14.83
2022-10-12T17:26:55.140Z,12.10
2022-10-12T17:29:21.997Z,15.53
2022-10-12T17:31:49.096Z,15.73
2022-10-12T17:34:23.325Z,16.57
2022-10-12T17:36:50.777Z,21.43
2022-10-12T17:39:17.846Z,15.83
2022-10-12T17:41:44.660Z,14.97
2022-10-12T17:44:11.641Z,16.77
2022-10-12T17:46:38.804Z,13.37
2022-10-12T17:49:05.971Z,13.50
2022-10-12T17:51:32.865Z,14.20
2022-10-12T17:53:59.580Z,11.97
2022-10-12T17:56:26.381Z,14.17
2022-10-12T17:58:53.982Z,13.53
2022-10-12T18:01:20.857Z,15.10
2022-10-12T18:03:48.142Z,10.47
2022-10-12T18:06:16.503Z,16.70
2022-10-12T18:08:43.702Z,14.97
2022-10-12T18:11:10.876Z,15.87
2022-10-12T18:13:38.101Z,14.10
2022-10-12T18:16:09.380Z,15.13
2022-10-12T18:18:36.126Z,15.73
2022-10-12T18:21:07.078Z,12.90
2022-10-12T18:23:34.009Z,14.63
2022-10-12T18:26:07.803Z,15.87
2022-10-12T18:28:35.322Z,15.90
2022-10-12T18:31:03.652Z,13.90
2022-10-12T18:33:30.252Z,16.03
2022-10-12T18:36:01.757Z,15.70
2022-10-12T18:38:28.352Z,13.93
2022-10-12T18:40:54.964Z,19.63
2022-10-12T18:43:21.551Z,16.53
2022-10-12T18:45:48.104Z,16.50
2022-10-12T18:48:15.162Z,16.67
2022-10-12T18:50:41.840Z,14.20
2022-10-12T18:53:08.596Z,14.27
2022-10-12T18:55:38.568Z,14.70
2022-10-12T18:58:05.537Z,13.33
2022-10-12T19:00:32.272Z,14.20
2022-10-12T19:02:59.071Z,17.33
2022-10-12T19:05:26.711Z,12.43
2022-10-12T19:07:53.284Z,13.53
2022-10-12T19:10:19.938Z,12.87
2022-10-12T19:12:46.504Z,15.37
2022-10-12T19:15:13.110Z,13.47
2022-10-12T19:17:39.677Z,12.57
2022-10-12T19:20:06.596Z,13.43
2022-10-12T19:22:33.338Z,15.10
2022-10-12T19:24:59.984Z,12.93
2022-10-12T19:27:26.629Z,11.40
2022-10-12T19:29:53.218Z,14.87
2022-10-12T19:32:20.304Z,13.57
2022-10-12T19:34:49.976Z,12.27
2022-10-12T19:37:16.561Z,16.67
2022-10-12T19:39:45.076Z,11.10
2022-10-12T19:42:11.672Z,11.53
2022-10-12T19:44:38.389Z,14.53
2022-10-12T19:47:04.994Z,12.03
2022-10-12T19:49:36.419Z,10.87
2022-10-12T19:52:03.898Z,12.13
2022-10-12T19:54:34.082Z,12.90
2022-10-12T19:57:02.580Z,14.43
2022-10-12T19:59:29.203Z,9.90
2022-10-12T20:01:55.788Z,20.17
2022-10-12T20:04:22.438Z,13.77
2022-10-12T20:06:49.049Z,14.97
2022-10-12T20:09:15.643Z,16.53
2022-10-12T20:11:42.386Z,13.17
2022-10-12T20:14:10.172Z,10.00
2022-10-12T20:16:37.393Z,11.30
2022-10-12T20:19:05.256Z,12.37
2022-10-12T20:21:31.993Z,14.90
2022-10-12T20:23:58.617Z,12.77
2022-10-12T20:26:25.358Z,12.80
2022-10-12T20:28:53.162Z,12.67
2022-10-12T20:31:23.252Z,10.23
2022-10-12T20:33:51.905Z,14.93
2022-10-12T20:36:23.383Z,11.20
2022-10-12T20:38:50.086Z,11.47
2022-10-12T20:41:21.610Z,12.57
2022-10-12T20:43:48.369Z,13.67
2022-10-12T20:46:16.548Z,13.83
2022-10-12T20:48:44.489Z,11.60
2022-10-12T20:51:15.897Z,11.57
2022-10-12T20:53:42.518Z,10.50
2022-10-12T20:56:10.083Z,12.57
2022-10-12T20:58:37.016Z,13.93
2022-10-12T21:01:08.752Z,11.60
2022-10-12T21:03:35.833Z,10.60
2022-10-12T21:06:06.189Z,9.53
2022-10-12T21:08:32.996Z,13.00
2022-10-12T21:10:59.733Z,12.03
2022-10-12T21:13:29.080Z,14.47
2022-10-12T21:15:55.623Z,10.73
2022-10-12T21:18:22.378Z,9.37
2022-10-12T21:20:56.094Z,11.73
2022-10-12T21:23:22.965Z,10.60
2022-10-12T21:25:49.589Z,10.97
2022-10-12T21:28:16.294Z,10.93
2022-10-12T21:30:43.041Z,11.40
2022-10-12T21:33:09.672Z,10.73
2022-10-12T21:35:39.140Z,11.97
2022-10-12T21:38:05.881Z,10.33
2022-10-12T21:40:32.969Z,14.23
2022-10-12T21:42:59.711Z,11.53
2022-10-12T21:45:26.316Z,14.23
2022-10-12T21:47:52.961Z,11.20
2022-10-12T21:50:19.545Z,15.10
2022-10-12T21:52:49.794Z,13.10
2022-10-12T21:55:16.724Z,14.97
2022-10-12T21:57:44.773Z,15.83
2022-10-12T22:00:11.645Z,18.10
2022-10-12T22:02:41.063Z,13.47
2022-10-12T22:05:07.742Z,15.53
2022-10-12T22:07:34.357Z,14.00
2022-10-12T22:10:00.951Z,17.43
2022-10-12T22:12:27.775Z,14.40
2022-10-12T22:14:54.332Z,15.80
2022-10-12T22:17:21.013Z,14.83
2022-10-12T22:19:47.700Z,13.00
2022-10-12T22:22:14.355Z,12.30
2022-10-12T22:24:41.020Z,12.67
2022-10-12T22:27:07.873Z,12.17
2022-10-12T22:29:34.934Z,11.93
2022-10-12T22:32:02.169Z,11.33
2022-10-12T22:34:28.739Z,12.37
2022-10-12T22:36:55.764Z,13.33
2022-10-12T22:39:24.281Z,14.17
2022-10-12T22:41:50.870Z,17.97
2022-10-12T22:44:17.501Z,12.03
2022-10-12T22:46:44.080Z,12.70
2022-10-12T22:49:10.633Z,13.33
2022-10-12T22:51:40.863Z,11.73
2022-10-12T22:54:07.642Z,12.03
2022-10-12T22:56:34.324Z,12.93
2022-10-12T22:59:03.055Z,11.33
2022-10-12T23:01:29.847Z,14.03
2022-10-12T23:03:56.584Z,9.87
2022-10-12T23:06:23.583Z,11.00
2022-10-12T23:08:50.854Z,11.87
2022-10-12T23:11:18.510Z,12.90
2022-10-12T23:13:45.177Z,10.30
2022-10-12T23:16:13.066Z,13.70
2022-10-12T23:18:40.350Z,13.37
2022-10-12T23:21:07.772Z,15.00
2022-10-12T23:23:35.260Z,9.50
2022-10-12T23:26:03.913Z,15.53
2022-10-12T23:28:30.796Z,10.03
2022-10-12T23:30:57.631Z,15.60
2022-10-12T23:33:24.410Z,12.53
2022-10-12T23:36:01.433Z,13.20
2022-10-12T23:38:29.261Z,12.17
2022-10-12T23:40:56.001Z,13.90
2022-10-12T23:43:22.594Z,13.10
2022-10-12T23:45:49.334Z,12.03
2022-10-12T23:48:16.215Z,12.97
2022-10-12T23:50:47.011Z,12.97
2022-10-12T23:53:13.979Z,12.00
2022-10-12T23:55:40.548Z,11.80
2022-10-12T23:58:07.133Z,12.67
